createdAt,value
2022-12-13T00:01:53.916Z,-0.60
2022-12-13T00:04:23.738Z,-0.60
2022-12-13T00:06:53.846Z,-0.60
2022-12-13T00:09:22.148Z,-0.60
2022-12-13T00:11:50.303Z,-0.70
2022-12-13T00:14:18.174Z,-0.70
2022-12-13T00:16:48.157Z,-0.70
2022-12-13T00:19:16.357Z,-0.70
2022-12-13T00:21:43.935Z,-0.70
2022-12-13T00:24:11.280Z,-0.70
2022-12-13T00:26:38.697Z,-0.70
2022-12-13T00:29:07.450Z,-0.70
2022-12-13T00:34:23.263Z,-0.70
2022-12-13T00:36:50.892Z,-0.70
2022-12-13T00:39:19.184Z,-0.70
2022-12-13T00:41:47.306Z,-0.70
2022-12-13T00:44:15.190Z,-0.80
2022-12-13T00:46:42.844Z,-0.80
2022-12-13T00:49:11.470Z,-0.80
2022-12-13T00:51:39.386Z,-0.80
2022-12-13T00:54:08.064Z,-0.80
2022-12-13T00:56:37.605Z,-0.90
2022-12-13T00:59:05.280Z,-0.90
2022-12-13T01:01:35.973Z,-0.90
2022-12-13T01:04:04.729Z,-0.90
2022-12-13T01:06:42.310Z,-0.90
2022-12-13T01:09:19.206Z,-0.90
2022-12-13T01:11:47.040Z,-0.90
2022-12-13T01:14:15.224Z,-1.00
2022-12-13T01:16:42.566Z,-1.00
2022-12-13T01:19:09.826Z,-1.00
2022-12-13T01:21:37.138Z,-1.00
2022-12-13T01:24:05.782Z,-1.00
2022-12-13T01:26:33.813Z,-1.00
2022-12-13T01:29:01.924Z,-1.00
2022-12-13T01:31:29.209Z,-1.10
2022-12-13T01:33:56.888Z,-1.00
2022-12-13T01:36:27.781Z,-1.10
2022-12-13T01:38:59.419Z,-1.10
2022-12-13T01:41:28.518Z,-1.10
2022-12-13T01:44:03.591Z,-1.10
2022-12-13T01:46:36.025Z,-1.10
2022-12-13T01:49:20.392Z,-1.10
2022-12-13T01:51:48.242Z,-1.10
2022-12-13T01:54:21.474Z,-1.10
2022-12-13T01:56:53.512Z,-1.20
2022-12-13T01:59:28.649Z,-1.20
2022-12-13T02:02:00.639Z,-1.20
2022-12-13T02:05:00.421Z,-1.20
2022-12-13T02:07:31.145Z,-1.20
2022-12-13T02:10:00.684Z,-1.20
2022-12-13T02:12:31.152Z,-1.20
2022-12-13T02:15:01.292Z,-1.30
2022-12-13T02:17:34.898Z,-1.20
2022-12-13T02:20:37.111Z,-1.30
2022-12-13T02:23:41.974Z,-1.30
2022-12-13T02:26:28.079Z,-1.30
2022-12-13T02:29:14.010Z,-1.40
2022-12-13T02:32:30.614Z,-1.40
2022-12-13T02:35:17.115Z,-1.40
2022-12-13T02:37:54.217Z,-1.40
2022-12-13T02:40:32.627Z,-1.50
2022-12-13T02:43:05.444Z,-1.50
2022-12-13T02:45:47.908Z,-1.50
2022-12-13T02:48:26.192Z,-1.50
2022-12-13T02:50:54.409Z,-1.50
2022-12-13T02:53:24.437Z,-1.50
2022-12-13T02:55:51.704Z,-1.50
2022-12-13T02:58:25.161Z,-1.60
2022-12-13T03:01:27.881Z,-1.50
2022-12-13T03:04:26.428Z,-1.60
2022-12-13T03:07:23.825Z,-1.60
2022-12-13T03:10:05.621Z,-1.60
2022-12-13T03:13:10.730Z,-1.60
2022-12-13T03:15:56.424Z,-1.60
2022-12-13T03:18:27.100Z,-1.60
2022-12-13T03:20:59.006Z,-1.60
2022-12-13T03:23:27.166Z,-1.60
2022-12-13T03:26:13.705Z,-1.60
2022-12-13T03:28:41.517Z,-1.70
2022-12-13T03:31:09.300Z,-1.70
2022-12-13T03:33:38.657Z,-1.70
2022-12-13T03:36:07.006Z,-1.70
2022-12-13T03:38:35.106Z,-1.80
2022-12-13T03:41:09.188Z,-1.80
2022-12-13T03:43:40.458Z,-1.80
2022-12-13T03:46:08.309Z,-1.80
2022-12-13T03:48:35.752Z,-1.80
2022-12-13T03:51:03.598Z,-1.80
2022-12-13T03:53:33.066Z,-1.80
2022-12-13T03:56:05.875Z,-1.80
2022-12-13T03:58:37.321Z,-1.80
2022-12-13T04:01:11.234Z,-1.80
2022-12-13T04:03:40.194Z,-1.90
2022-12-13T04:06:07.981Z,-1.90
2022-12-13T04:08:36.683Z,-2.00
2022-12-13T04:11:24.714Z,-1.90
2022-12-13T04:13:53.826Z,-1.90
2022-12-13T04:16:22.280Z,-2.00
2022-12-13T04:18:49.975Z,-1.90
2022-12-13T04:21:17.404Z,-2.00
2022-12-13T04:23:44.787Z,-2.00
2022-12-13T04:26:12.077Z,-2.00
2022-12-13T04:28:39.323Z,-2.00
2022-12-13T04:31:06.586Z,-2.10
2022-12-13T04:33:35.076Z,-2.10
2022-12-13T04:36:02.575Z,-2.10
2022-12-13T04:38:29.842Z,-2.10
2022-12-13T04:41:15.893Z,-2.20
2022-12-13T04:43:43.809Z,-2.10
2022-12-13T04:46:12.082Z,-2.10
2022-12-13T04:48:39.372Z,-2.10
2022-12-13T04:51:06.786Z,-2.20
2022-12-13T04:53:34.081Z,-2.20
2022-12-13T04:56:04.653Z,-2.20
2022-12-13T04:58:32.231Z,-2.20
2022-12-13T05:00:59.503Z,-2.30
2022-12-13T05:03:28.690Z,-2.30
2022-12-13T05:05:56.891Z,-2.30
2022-12-13T05:08:24.274Z,-2.30
2022-12-13T05:10:51.581Z,-2.30
2022-12-13T05:13:18.835Z,-2.40
2022-12-13T05:15:49.441Z,-2.40
2022-12-13T05:18:19.413Z,-2.40
2022-12-13T05:20:46.641Z,-2.50
2022-12-13T05:23:13.826Z,-2.50
2022-12-13T05:25:51.395Z,-2.50
2022-12-13T05:28:27.864Z,-2.50
2022-12-13T05:31:06.491Z,-2.50
2022-12-13T05:33:52.140Z,-2.50
2022-12-13T05:36:19.843Z,-2.60
2022-12-13T05:38:47.061Z,-2.50
2022-12-13T05:41:17.327Z,-2.50
2022-12-13T05:43:44.543Z,-2.50
2022-12-13T05:46:13.160Z,-2.50
2022-12-13T05:48:41.181Z,-2.60
2022-12-13T05:51:11.893Z,-2.60
2022-12-13T05:53:41.402Z,-2.60
2022-12-13T05:56:11.139Z,-2.60
2022-12-13T05:58:40.066Z,-2.60
2022-12-13T06:01:09.570Z,-2.60
2022-12-13T06:03:37.503Z,-2.70
2022-12-13T06:06:06.696Z,-2.70
2022-12-13T06:08:34.103Z,-2.70
2022-12-13T06:11:10.032Z,-2.70
2022-12-13T06:13:44.260Z,-2.70
2022-12-13T06:16:23.894Z,-2.70
2022-12-13T06:19:03.647Z,-2.70
2022-12-13T06:21:45.559Z,-2.70
2022-12-13T06:24:18.179Z,-2.70
2022-12-13T06:26:46.189Z,-2.70
2022-12-13T06:29:23.496Z,-2.70
2022-12-13T06:31:55.011Z,-2.70
2022-12-13T06:34:32.261Z,-2.70
2022-12-13T06:37:01.037Z,-2.70
2022-12-13T06:39:32.701Z,-2.70
2022-12-13T06:42:02.356Z,-2.70
2022-12-13T06:44:29.637Z,-2.70
2022-12-13T06:47:10.767Z,-2.70
2022-12-13T06:49:42.826Z,-2.70
2022-12-13T06:52:12.738Z,-2.70
2022-12-13T06:54:41.392Z,-2.70
2022-12-13T06:57:09.386Z,-2.70
2022-12-13T06:59:36.625Z,-2.70
2022-12-13T07:02:04.398Z,-2.60
2022-12-13T07:04:32.798Z,-2.60
2022-12-13T07:07:01.614Z,-2.70
2022-12-13T07:09:32.988Z,-2.70
2022-12-13T07:12:00.518Z,-2.70
2022-12-13T07:14:27.741Z,-2.60
2022-12-13T07:17:02.833Z,-2.70
2022-12-13T07:19:35.372Z,-2.60
2022-12-13T07:22:09.651Z,-2.70
2022-12-13T07:24:37.117Z,-2.60
2022-12-13T07:27:04.884Z,-2.70
2022-12-13T07:29:32.162Z,-2.70
2022-12-13T07:32:01.105Z,-2.70
2022-12-13T07:34:30.593Z,-2.70
2022-12-13T07:36:58.286Z,-2.70
2022-12-13T07:39:26.244Z,-2.70
2022-12-13T07:41:55.735Z,-2.70
2022-12-13T07:44:24.448Z,-2.70
2022-12-13T07:46:51.924Z,-2.70
2022-12-13T07:49:19.496Z,-2.70
2022-12-13T07:51:48.047Z,-2.70
2022-12-13T07:54:15.490Z,-2.80
2022-12-13T07:56:42.747Z,-2.70
2022-12-13T07:59:10.942Z,-2.70
2022-12-13T08:01:38.292Z,-2.70
2022-12-13T08:04:05.764Z,-2.70
2022-12-13T08:06:37.772Z,-2.70
2022-12-13T08:09:05.972Z,-2.70
2022-12-13T08:11:33.441Z,-2.70
2022-12-13T08:14:00.720Z,-2.60
2022-12-13T08:16:30.350Z,-2.60
2022-12-13T08:19:02.594Z,-2.60
2022-12-13T08:21:58.261Z,-2.60
2022-12-13T08:24:29.966Z,-2.60
2022-12-13T08:27:02.096Z,-2.60
2022-12-13T08:29:34.288Z,-2.60
2022-12-13T08:32:05.094Z,-2.50
2022-12-13T08:34:32.381Z,-2.50
2022-12-13T08:37:01.768Z,-2.40
2022-12-13T08:39:35.334Z,-2.30
2022-12-13T08:42:14.944Z,-2.30
2022-12-13T08:44:49.996Z,-2.30
2022-12-13T08:47:24.634Z,-2.20
2022-12-13T08:50:01.391Z,-2.20
2022-12-13T08:52:39.626Z,-2.20
2022-12-13T08:55:10.113Z,-2.10
2022-12-13T08:57:38.166Z,-2.10
2022-12-13T09:00:06.884Z,-2.10
2022-12-13T09:02:38.277Z,-2.00
2022-12-13T09:05:12.717Z,-2.00
2022-12-13T09:07:41.255Z,-1.90
2022-12-13T09:10:27.052Z,-1.90
2022-12-13T09:13:01.599Z,-1.80
2022-12-13T09:15:34.445Z,-1.80
2022-12-13T09:18:04.364Z,-1.80
2022-12-13T09:20:41.657Z,-1.70
2022-12-13T09:23:13.438Z,-1.70
2022-12-13T09:25:55.345Z,-1.60
2022-12-13T09:28:23.079Z,-1.60
2022-12-13T09:30:50.718Z,-1.50
2022-12-13T09:33:30.496Z,-1.40
2022-12-13T09:36:01.098Z,-1.40
2022-12-13T09:38:29.497Z,-1.30
2022-12-13T09:41:00.292Z,-1.20
2022-12-13T09:43:42.876Z,-1.10
2022-12-13T09:46:34.872Z,-1.10
2022-12-13T09:49:39.246Z,-1.00
2022-12-13T09:52:21.865Z,-1.00
2022-12-13T09:54:56.929Z,-0.90
2022-12-13T09:57:30.823Z,-0.80
2022-12-13T10:00:07.594Z,-0.80
2022-12-13T10:02:44.413Z,-0.80
2022-12-13T10:05:21.434Z,-0.70
2022-12-13T10:07:50.189Z,-0.70
2022-12-13T10:10:18.377Z,-0.70
2022-12-13T10:12:51.635Z,-0.70
2022-12-13T10:15:21.995Z,-0.70
2022-12-13T10:17:55.634Z,-0.70
2022-12-13T10:20:28.870Z,-0.60
2022-12-13T10:23:31.382Z,-0.50
2022-12-13T10:26:03.433Z,-0.50
2022-12-13T10:28:34.711Z,-0.50
2022-12-13T10:31:02.542Z,-0.40
2022-12-13T10:33:36.431Z,-0.30
2022-12-13T10:36:29.718Z,-0.30
2022-12-13T10:38:57.405Z,-0.20
2022-12-13T10:41:37.044Z,-0.10
2022-12-13T10:44:20.996Z,-0.10
2022-12-13T10:46:53.226Z,0.00
2022-12-13T10:49:23.860Z,0.00
2022-12-13T10:51:53.708Z,0.10
2022-12-13T10:54:29.439Z,0.20
2022-12-13T10:57:11.630Z,0.20
2022-12-13T10:59:39.806Z,0.30
2022-12-13T11:02:29.301Z,0.40
2022-12-13T11:04:58.247Z,0.50
2022-12-13T11:07:31.645Z,0.60
2022-12-13T11:10:16.487Z,0.70
2022-12-13T11:12:44.842Z,0.70
2022-12-13T11:15:23.115Z,0.80
2022-12-13T11:17:54.532Z,0.80
2022-12-13T11:20:27.104Z,0.80
2022-12-13T11:23:38.241Z,0.80
2022-12-13T11:26:10.468Z,0.90
2022-12-13T11:28:44.161Z,0.80
2022-12-13T11:31:33.582Z,0.90
2022-12-13T11:34:09.536Z,0.90
2022-12-13T11:36:48.531Z,1.00
2022-12-13T11:39:36.865Z,1.00
2022-12-13T11:42:28.385Z,1.10
2022-12-13T11:45:22.644Z,1.10
2022-12-13T11:47:58.356Z,1.20
2022-12-13T11:50:33.519Z,1.20
2022-12-13T11:53:19.162Z,1.20
2022-12-13T11:55:54.337Z,1.30
2022-12-13T11:59:01.023Z,1.30
2022-12-13T12:01:47.336Z,1.30
2022-12-13T12:04:27.262Z,1.40
2022-12-13T12:07:32.209Z,1.40
2022-12-13T12:10:30.731Z,1.40
2022-12-13T12:13:17.243Z,1.50
2022-12-13T12:15:56.938Z,1.50
2022-12-13T12:18:24.704Z,1.50
2022-12-13T12:21:56.470Z,1.50
2022-12-13T12:24:23.026Z,1.50
2022-12-13T12:27:07.316Z,1.50
2022-12-13T12:30:09.735Z,1.50
2022-12-13T12:32:46.995Z,1.50
2022-12-13T12:35:46.181Z,1.50
2022-12-13T12:38:23.174Z,1.50
2022-12-13T12:41:28.024Z,1.40
2022-12-13T12:44:20.439Z,1.40
2022-12-13T12:47:38.141Z,1.40
2022-12-13T12:50:03.206Z,1.30
2022-12-13T12:52:39.043Z,1.30
2022-12-13T12:55:25.097Z,1.30
2022-12-13T12:58:07.554Z,1.30
2022-12-13T13:00:54.325Z,1.30
2022-12-13T13:03:24.462Z,1.40
2022-12-13T13:06:01.935Z,1.40
2022-12-13T13:08:35.926Z,1.50
2022-12-13T13:11:06.123Z,1.50
2022-12-13T13:14:01.844Z,1.60
2022-12-13T13:16:40.281Z,1.50
2022-12-13T13:19:13.701Z,1.50
2022-12-13T13:21:52.785Z,1.50
2022-12-13T13:24:21.844Z,1.50
2022-12-13T13:26:50.414Z,1.50
2022-12-13T13:29:27.324Z,1.50
2022-12-13T13:32:02.567Z,1.50
2022-12-13T13:34:45.647Z,1.50
2022-12-13T13:37:23.284Z,1.50
2022-12-13T13:40:30.783Z,1.50
2022-12-13T13:43:19.451Z,1.50
2022-12-13T13:45:49.972Z,1.50
2022-12-13T13:48:54.734Z,1.50
2022-12-13T13:51:54.927Z,1.50
2022-12-13T13:54:43.151Z,1.60
2022-12-13T13:58:07.120Z,1.50
2022-12-13T14:00:21.704Z,1.50
2022-12-13T14:03:22.600Z,1.60
2022-12-13T14:06:18.590Z,1.50
2022-12-13T14:09:12.781Z,1.50
2022-12-13T14:12:20.455Z,1.40
2022-12-13T14:15:19.966Z,1.50
2022-12-13T14:18:13.166Z,1.40
2022-12-13T14:21:10.138Z,1.40
2022-12-13T14:23:55.607Z,1.40
2022-12-13T14:26:40.930Z,1.40
2022-12-13T14:29:18.617Z,1.40
2022-12-13T14:31:47.865Z,1.40
2022-12-13T14:34:44.599Z,1.40
2022-12-13T14:37:37.699Z,1.40
2022-12-13T14:40:29.307Z,1.30
2022-12-13T14:42:57.144Z,1.30
2022-12-13T14:45:31.241Z,1.30
2022-12-13T14:48:01.545Z,1.30
2022-12-13T14:50:32.969Z,1.20
2022-12-13T14:53:04.017Z,1.20
2022-12-13T14:55:36.076Z,1.20
2022-12-13T14:58:15.874Z,1.20
2022-12-13T15:00:46.451Z,1.10
2022-12-13T15:03:27.028Z,1.10
2022-12-13T15:06:00.232Z,1.10
2022-12-13T15:08:28.121Z,1.10
2022-12-13T15:10:58.466Z,1.00
2022-12-13T15:13:32.798Z,1.00
2022-12-13T15:16:10.075Z,1.00
2022-12-13T15:18:50.431Z,0.90
2022-12-13T15:21:24.480Z,0.90
2022-12-13T15:23:59.973Z,0.90
2022-12-13T15:26:32.704Z,0.80
2022-12-13T15:29:10.411Z,0.80
2022-12-13T15:31:40.707Z,0.80
2022-12-13T15:34:29.004Z,0.70
2022-12-13T15:37:29.333Z,0.70
2022-12-13T15:40:08.510Z,0.70
2022-12-13T15:42:38.562Z,0.60
2022-12-13T15:45:23.121Z,0.60
2022-12-13T15:47:51.691Z,0.60
2022-12-13T15:50:31.985Z,0.50
2022-12-13T15:53:26.020Z,0.50
2022-12-13T15:55:53.602Z,0.50
2022-12-13T15:58:34.390Z,0.50
2022-12-13T16:01:06.399Z,0.50
2022-12-13T16:03:45.316Z,0.50
2022-12-13T16:06:23.715Z,0.40
2022-12-13T16:08:54.396Z,0.40
2022-12-13T16:11:58.639Z,0.40
2022-12-13T16:14:32.227Z,0.40
2022-12-13T16:17:24.932Z,0.40
2022-12-13T16:19:54.444Z,0.30
2022-12-13T16:22:23.835Z,0.30
2022-12-13T16:24:52.564Z,0.30
2022-12-13T16:27:20.146Z,0.20
2022-12-13T16:29:47.472Z,0.20
2022-12-13T16:32:14.737Z,0.20
2022-12-13T16:34:42.068Z,0.20
2022-12-13T16:37:25.509Z,0.20
2022-12-13T16:39:55.808Z,0.20
2022-12-13T16:42:26.443Z,0.30
2022-12-13T16:45:17.636Z,0.30
2022-12-13T16:47:48.740Z,0.20
2022-12-13T16:50:19.984Z,0.20
2022-12-13T16:52:48.719Z,0.20
2022-12-13T16:55:16.211Z,0.30
2022-12-13T16:57:43.567Z,0.20
2022-12-13T17:00:13.326Z,0.20
2022-12-13T17:02:41.005Z,0.20
2022-12-13T17:05:08.558Z,0.20
2022-12-13T17:07:35.825Z,0.20
2022-12-13T17:10:04.820Z,0.20
2022-12-13T17:12:32.120Z,0.20
2022-12-13T17:14:59.363Z,0.10
2022-12-13T17:17:26.596Z,0.20
2022-12-13T17:19:54.005Z,0.10
2022-12-13T17:22:21.232Z,0.10
2022-12-13T17:24:48.468Z,0.20
2022-12-13T17:27:15.815Z,0.20
2022-12-13T17:29:43.029Z,0.20
2022-12-13T17:32:10.313Z,0.20
2022-12-13T17:34:37.610Z,0.20
2022-12-13T17:37:10.214Z,0.10
2022-12-13T17:39:38.051Z,0.10
2022-12-13T17:42:05.588Z,0.20
2022-12-13T17:44:33.677Z,0.10
2022-12-13T17:47:01.257Z,0.10
2022-12-13T17:49:28.563Z,0.10
2022-12-13T17:51:55.888Z,0.10
2022-12-13T17:54:24.745Z,0.10
2022-12-13T17:56:52.831Z,0.10
2022-12-13T17:59:21.267Z,0.10
2022-12-13T18:01:48.866Z,0.10
2022-12-13T18:04:16.350Z,0.10
2022-12-13T18:06:45.074Z,0.10
2022-12-13T18:09:12.933Z,0.10
2022-12-13T18:11:40.680Z,0.10
2022-12-13T18:14:09.081Z,0.10
2022-12-13T18:16:38.952Z,0.10
2022-12-13T18:19:11.026Z,0.10
2022-12-13T18:21:38.648Z,0.10
2022-12-13T18:24:06.766Z,0.10
2022-12-13T18:26:34.225Z,0.10
2022-12-13T18:29:05.816Z,0.10
2022-12-13T18:31:33.556Z,0.10
2022-12-13T18:34:01.973Z,0.10
2022-12-13T18:36:30.378Z,0.10
2022-12-13T18:38:57.908Z,0.10
2022-12-13T18:41:28.569Z,0.10
2022-12-13T18:43:59.395Z,0.10
2022-12-13T18:46:29.751Z,0.00
2022-12-13T18:48:58.221Z,0.00
2022-12-13T18:51:26.779Z,0.00
2022-12-13T18:53:56.344Z,0.00
2022-12-13T18:56:24.553Z,0.00
2022-12-13T18:58:52.594Z,0.00
2022-12-13T19:01:23.220Z,-0.10
2022-12-13T19:03:51.232Z,-0.10
2022-12-13T19:06:22.154Z,-0.10
2022-12-13T19:08:52.525Z,-0.10
2022-12-13T19:11:20.855Z,-0.10
2022-12-13T19:13:49.885Z,-0.10
2022-12-13T19:16:29.634Z,-0.10
2022-12-13T19:18:57.905Z,-0.20
2022-12-13T19:21:25.610Z,-0.10
2022-12-13T19:24:40.457Z,-0.20
2022-12-13T19:27:09.028Z,-0.20
2022-12-13T19:29:36.295Z,-0.20
2022-12-13T19:32:03.901Z,-0.20
2022-12-13T19:34:31.932Z,-0.20
2022-12-13T19:37:06.267Z,-0.20
2022-12-13T19:39:34.357Z,-0.20
2022-12-13T19:42:04.148Z,-0.30
2022-12-13T19:44:31.945Z,-0.30
2022-12-13T19:47:00.199Z,-0.30
2022-12-13T19:49:27.522Z,-0.30
2022-12-13T19:51:55.283Z,-0.30
2022-12-13T19:54:24.774Z,-0.20
2022-12-13T19:56:53.328Z,-0.20
2022-12-13T19:59:20.756Z,-0.30
2022-12-13T20:01:48.061Z,-0.30
2022-12-13T20:04:15.790Z,-0.30
2022-12-13T20:06:43.201Z,-0.30
2022-12-13T20:09:10.551Z,-0.30
2022-12-13T20:11:37.903Z,-0.30
2022-12-13T20:14:05.182Z,-0.30
2022-12-13T20:16:32.736Z,-0.30
2022-12-13T20:19:00.861Z,-0.40
2022-12-13T20:21:29.540Z,-0.40
2022-12-13T20:23:57.647Z,-0.40
2022-12-13T20:26:27.833Z,-0.40
2022-12-13T20:28:56.045Z,-0.40
2022-12-13T20:31:29.003Z,-0.40
2022-12-13T20:33:58.177Z,-0.40
2022-12-13T20:36:27.825Z,-0.40
2022-12-13T20:38:57.403Z,-0.40
2022-12-13T20:41:27.603Z,-0.40
2022-12-13T20:43:56.957Z,-0.40
2022-12-13T20:46:25.716Z,-0.40
2022-12-13T20:48:53.902Z,-0.40
2022-12-13T20:51:23.246Z,-0.40
2022-12-13T20:53:52.121Z,-0.40
2022-12-13T20:56:22.732Z,-0.50
2022-12-13T20:58:50.556Z,-0.40
2022-12-13T21:01:30.531Z,-0.40
2022-12-13T21:04:00.273Z,-0.40
2022-12-13T21:06:28.944Z,-0.40
2022-12-13T21:08:59.921Z,-0.50
2022-12-13T21:11:52.599Z,-0.50
2022-12-13T21:14:25.711Z,-0.50
2022-12-13T21:17:00.904Z,-0.50
2022-12-13T21:19:39.030Z,-0.50
2022-12-13T21:22:07.694Z,-0.50
2022-12-13T21:24:35.007Z,-0.50
2022-12-13T21:27:02.254Z,-0.50
2022-12-13T21:29:29.534Z,-0.50
2022-12-13T21:31:56.992Z,-0.50
2022-12-13T21:34:24.583Z,-0.50
2022-12-13T21:36:52.708Z,-0.50
2022-12-13T21:39:28.133Z,-0.50
2022-12-13T21:41:56.646Z,-0.50
2022-12-13T21:44:24.255Z,-0.60
2022-12-13T21:49:39.109Z,-0.60
2022-12-13T21:52:06.386Z,-0.60
2022-12-13T21:54:33.813Z,-0.60
2022-12-13T21:57:20.154Z,-0.70
2022-12-13T21:59:47.484Z,-0.60
2022-12-13T22:02:18.368Z,-0.70
2022-12-13T22:04:54.454Z,-0.70
2022-12-13T22:07:32.988Z,-0.70
2022-12-13T22:10:01.487Z,-0.70
2022-12-13T22:12:36.231Z,-0.70
2022-12-13T22:15:11.943Z,-0.70
2022-12-13T22:17:40.259Z,-0.70
2022-12-13T22:20:10.992Z,-0.70
2022-12-13T22:22:39.353Z,-0.70
2022-12-13T22:25:07.549Z,-0.70
2022-12-13T22:27:34.966Z,-0.70
2022-12-13T22:30:02.225Z,-0.70
2022-12-13T22:32:31.159Z,-0.70
2022-12-13T22:34:59.054Z,-0.70
2022-12-13T22:37:26.586Z,-0.80
2022-12-13T22:39:54.082Z,-0.70
2022-12-13T22:42:21.679Z,-0.70
2022-12-13T22:44:49.073Z,-0.70
2022-12-13T22:47:16.351Z,-0.70
2022-12-13T22:49:43.660Z,-0.70
2022-12-13T22:52:10.953Z,-0.70
2022-12-13T22:54:38.251Z,-0.70
2022-12-13T22:57:07.376Z,-0.70
2022-12-13T22:59:34.700Z,-0.70
2022-12-13T23:02:03.790Z,-0.70
2022-12-13T23:04:32.906Z,-0.70
2022-12-13T23:07:00.279Z,-0.70
2022-12-13T23:09:27.609Z,-0.70
2022-12-13T23:12:13.334Z,-0.70
2022-12-13T23:14:40.558Z,-0.60
2022-12-13T23:17:07.874Z,-0.60
2022-12-13T23:19:50.703Z,-0.60
2022-12-13T23:22:25.780Z,-0.60
2022-12-13T23:24:53.413Z,-0.60
2022-12-13T23:27:22.422Z,-0.60
2022-12-13T23:29:49.989Z,-0.60
2022-12-13T23:32:17.364Z,-0.50
2022-12-13T23:34:44.599Z,-0.50
2022-12-13T23:37:11.982Z,-0.50
2022-12-13T23:39:39.364Z,-0.50
2022-12-13T23:42:07.174Z,-0.50
2022-12-13T23:44:34.624Z,-0.50
2022-12-13T23:47:01.810Z,-0.50
2022-12-13T23:49:29.138Z,-0.50
2022-12-13T23:51:56.392Z,-0.50
2022-12-13T23:54:23.611Z,-0.50
2022-12-13T23:56:50.859Z,-0.50
2022-12-13T23:59:18.883Z,-0.50
